Time;durP1;ratioP1;P1;durP2;ratioP2;P2;SDS_P1;SDS_P2;PMS_P1;PMS_P2;Temp;Humidity;BMP_temperature;BMP_pressure;BME280_temperature;BME280_humidity;BME280_pressure;Samples;Min_cycle;Max_cycle;Signal;HPM_P1;HPM_P2
2021/05/24 00:00:33;;;;;;;8.75;3.78;;;9.60;99.90;;;;;;5026213;28;20060;-77
2021/05/24 00:02:59;;;;;;;13.80;3.33;;;9.60;99.90;;;;;;5008751;28;20050;-76
2021/05/24 00:05:27;;;;;;;8.65;2.92;;;9.70;99.90;;;;;;5026553;28;20038;-75
2021/05/24 00:07:53;;;;;;;6.22;3.00;;;9.70;99.90;;;;;;5026130;28;20033;-75
2021/05/24 00:10:22;;;;;;;6.10;3.45;;;9.70;99.90;;;;;;5026608;28;20482;-76
2021/05/24 00:12:50;;;;;;;9.25;3.40;;;9.80;99.90;;;;;;5009010;28;20029;-76
2021/05/24 00:15:30;;;;;;;6.13;3.38;;;9.80;99.90;;;;;;5026105;28;20026;-76
2021/05/24 00:17:56;;;;;;;5.68;2.83;;;9.80;99.90;;;;;;5026231;28;20493;-76
2021/05/24 00:20:26;;;;;;;10.88;2.92;;;9.80;99.90;;;;;;5026205;28;20038;-76
2021/05/24 00:22:52;;;;;;;6.43;2.92;;;9.80;99.90;;;;;;5026234;28;20052;-75
2021/05/24 00:25:18;;;;;;;8.82;2.88;;;9.80;99.90;;;;;;5026376;28;20037;-76
2021/05/24 00:27:44;;;;;;;4.93;3.10;;;9.70;99.90;;;;;;5025886;28;20029;-76
2021/05/24 00:30:11;;;;;;;5.88;2.47;;;9.80;99.90;;;;;;5025730;28;20036;-76
2021/05/24 00:32:37;;;;;;;8.95;3.22;;;9.70;99.90;;;;;;5025879;28;20034;-76
2021/05/24 00:35:05;;;;;;;7.15;3.22;;;9.70;99.90;;;;;;5008252;28;20034;-76
2021/05/24 00:37:30;;;;;;;5.47;3.00;;;9.70;99.90;;;;;;5008466;28;20085;-76
2021/05/24 00:39:56;;;;;;;6.07;3.45;;;9.70;99.90;;;;;;5026036;28;20132;-76
2021/05/24 00:42:21;;;;;;;5.57;2.58;;;9.60;99.90;;;;;;5025439;28;20069;-77
2021/05/24 00:44:47;;;;;;;5.05;2.45;;;9.70;99.90;;;;;;5025883;28;20113;-76
2021/05/24 00:47:13;;;;;;;5.05;2.78;;;9.60;99.90;;;;;;5008000;28;20034;-76
2021/05/24 00:49:38;;;;;;;11.75;3.17;;;9.60;99.90;;;;;;5025530;28;20032;-76
2021/05/24 00:52:05;;;;;;;4.68;2.70;;;9.60;99.90;;;;;;5025809;28;20033;-76
2021/05/24 00:54:31;;;;;;;5.22;2.33;;;9.60;99.90;;;;;;5024820;28;20052;-76
2021/05/24 00:56:59;;;;;;;8.10;3.45;;;9.60;99.90;;;;;;5007571;28;20038;-75
2021/05/24 00:59:24;;;;;;;5.15;2.75;;;9.60;99.90;;;;;;5025508;28;20041;-75
2021/05/24 01:01:50;;;;;;;5.43;2.92;;;9.60;99.90;;;;;;5007607;28;20050;-76
2021/05/24 01:04:18;;;;;;;4.35;2.78;;;9.60;99.90;;;;;;5025160;28;20026;-75
2021/05/24 01:06:43;;;;;;;5.93;3.33;;;9.60;99.90;;;;;;5025533;28;20030;-76
2021/05/24 01:09:09;;;;;;;4.80;2.30;;;9.50;99.90;;;;;;5007863;28;20033;-76
2021/05/24 01:11:36;;;;;;;5.55;2.35;;;9.60;99.90;;;;;;5025328;28;20029;-76
2021/05/24 01:14:02;;;;;;;6.15;2.97;;;9.60;99.90;;;;;;5025747;28;20022;-75
2021/05/24 01:16:29;;;;;;;4.88;2.40;;;9.60;99.90;;;;;;5007185;28;20029;-76
2021/05/24 01:18:54;;;;;;;3.55;2.30;;;9.60;99.90;;;;;;5024998;28;20038;-76
2021/05/24 01:21:22;;;;;;;4.75;2.88;;;9.70;99.90;;;;;;5007679;28;20172;-76
2021/05/24 01:23:48;;;;;;;4.50;2.53;;;9.70;99.90;;;;;;5024975;28;20022;-76
2021/05/24 01:26:14;;;;;;;6.80;2.90;;;9.70;99.90;;;;;;5007477;28;20037;-76
2021/05/24 01:28:40;;;;;;;4.53;2.70;;;9.70;99.90;;;;;;5025437;28;20052;-76
2021/05/24 01:31:06;;;;;;;7.28;2.78;;;9.70;99.90;;;;;;5024799;28;20030;-77
2021/05/24 01:33:35;;;;;;;5.75;2.78;;;9.60;99.90;;;;;;5007311;28;20022;-77
2021/05/24 01:36:03;;;;;;;4.45;2.50;;;9.60;99.90;;;;;;5025481;28;20041;-77
2021/05/24 01:38:31;;;;;;;6.40;3.00;;;9.60;99.90;;;;;;5024983;28;20028;-76
2021/05/24 01:40:56;;;;;;;13.10;2.97;;;9.60;99.90;;;;;;5024993;28;20048;-76
2021/05/24 01:43:26;;;;;;;3.40;2.38;;;9.60;99.90;;;;;;5024900;28;20065;-75
2021/05/24 01:45:52;;;;;;;4.82;2.38;;;9.60;99.90;;;;;;5024895;28;20030;-76
2021/05/24 01:48:18;;;;;;;3.05;2.42;;;9.60;99.90;;;;;;5007327;28;20046;-76
2021/05/24 01:50:43;;;;;;;3.72;2.25;;;9.70;99.90;;;;;;5007143;28;20113;-76
2021/05/24 01:53:10;;;;;;;6.15;2.88;;;9.70;99.90;;;;;;5024801;28;20589;-76
2021/05/24 01:55:36;;;;;;;7.07;2.70;;;9.70;99.90;;;;;;5007233;28;20037;-76
2021/05/24 01:58:02;;;;;;;2.75;2.13;;;9.80;99.90;;;;;;5024916;28;20470;-76
2021/05/24 02:00:28;;;;;;;6.75;2.47;;;9.80;99.90;;;;;;5024464;28;20038;-75
2021/05/24 02:02:55;;;;;;;3.67;2.03;;;9.80;99.90;;;;;;5024427;28;20105;-76
2021/05/24 02:05:23;;;;;;;3.60;2.13;;;9.80;99.90;;;;;;5009336;28;20021;-75
2021/05/24 02:07:50;;;;;;;2.65;1.67;;;9.80;99.90;;;;;;5013239;28;20026;-75
2021/05/24 02:10:20;;;;;;;3.28;2.00;;;9.90;99.90;;;;;;5013650;28;20037;-76
2021/05/24 02:12:46;;;;;;;3.28;1.85;;;9.80;99.90;;;;;;5031169;28;20053;-76
2021/05/24 02:15:15;;;;;;;10.07;2.40;;;9.80;99.90;;;;;;5013324;28;20129;-76
2021/05/24 02:17:41;;;;;;;4.75;2.22;;;9.80;99.90;;;;;;5030861;28;20045;-77
2021/05/24 02:20:08;;;;;;;3.13;1.77;;;9.90;99.90;;;;;;5030684;28;20037;-77
2021/05/24 02:22:34;;;;;;;4.22;1.85;;;9.90;99.90;;;;;;5013526;28;20478;-78
2021/05/24 02:25:00;;;;;;;2.03;1.67;;;9.90;99.90;;;;;;5031361;28;20033;-76
2021/05/24 02:27:25;;;;;;;3.30;1.70;;;9.90;99.90;;;;;;5030648;28;20390;-76
2021/05/24 02:29:51;;;;;;;3.20;1.80;;;10.00;99.90;;;;;;5030977;28;20030;-76
2021/05/24 02:32:16;;;;;;;2.28;1.60;;;10.00;99.90;;;;;;5013325;28;20026;-77
2021/05/24 02:34:42;;;;;;;2.40;1.45;;;10.00;99.90;;;;;;5012896;28;20390;-76
2021/05/24 02:37:08;;;;;;;4.20;2.10;;;10.00;99.90;;;;;;5031269;28;20052;-76
2021/05/24 02:39:33;;;;;;;3.70;1.90;;;10.00;99.90;;;;;;5031349;28;20076;-77
2021/05/24 02:41:59;;;;;;;6.30;2.13;;;10.00;99.90;;;;;;5013016;28;20389;-76
2021/05/24 02:44:25;;;;;;;15.65;2.22;;;10.00;99.90;;;;;;5030747;28;20030;-76
2021/05/24 02:46:51;;;;;;;3.03;1.50;;;10.10;99.90;;;;;;5030694;28;20026;-76
2021/05/24 02:49:16;;;;;;;2.05;1.60;;;10.00;99.90;;;;;;5030430;28;20034;-76
2021/05/24 02:51:42;;;;;;;2.72;1.90;;;10.00;99.90;;;;;;5013293;28;20030;-77
2021/05/24 02:54:09;;;;;;;13.18;2.08;;;10.00;99.90;;;;;;5030937;28;20553;-76
2021/05/24 02:56:37;;;;;;;3.45;1.60;;;10.00;99.90;;;;;;5030436;28;20026;-76
2021/05/24 02:59:03;;;;;;;8.13;1.77;;;10.00;99.90;;;;;;5031042;28;20477;-76
2021/05/24 03:01:30;;;;;;;4.93;1.73;;;10.00;99.90;;;;;;5030533;28;20054;-75
2021/05/24 03:03:58;;;;;;;2.08;1.20;;;10.00;99.90;;;;;;5030294;28;20073;-75
2021/05/24 03:06:24;;;;;;;11.80;1.52;;;10.00;99.90;;;;;;5030680;28;20041;-75
2021/05/24 03:08:50;;;;;;;3.97;2.05;;;10.00;99.90;;;;;;5030720;28;20064;-75
2021/05/24 03:11:17;;;;;;;2.92;1.50;;;10.00;99.90;;;;;;5030335;28;20029;-75
2021/05/24 03:13:43;;;;;;;4.22;1.85;;;10.00;99.90;;;;;;5030210;28;20030;-75
2021/05/24 03:16:09;;;;;;;2.97;1.50;;;10.00;99.90;;;;;;5012551;28;20061;-76
2021/05/24 03:18:34;;;;;;;2.25;1.23;;;10.00;99.90;;;;;;5026832;28;20038;-75
2021/05/24 03:21:00;;;;;;;1.90;1.52;;;10.00;99.90;;;;;;5027831;28;20056;-75
2021/05/24 03:23:27;;;;;;;1.63;1.30;;;10.00;99.90;;;;;;5027218;28;20030;-74
2021/05/24 03:25:53;;;;;;;1.90;1.52;;;9.90;99.90;;;;;;5027351;28;20029;-75
2021/05/24 03:28:18;;;;;;;6.28;1.77;;;9.90;99.90;;;;;;5009527;28;20026;-74
2021/05/24 03:30:44;;;;;;;2.20;1.45;;;9.90;99.90;;;;;;5027114;28;20074;-75
2021/05/24 03:33:09;;;;;;;2.78;1.65;;;9.90;99.90;;;;;;5026971;28;20026;-75
2021/05/24 03:35:35;;;;;;;5.72;1.85;;;9.90;99.90;;;;;;5027565;28;20061;-75
2021/05/24 03:38:01;;;;;;;2.50;1.50;;;9.90;99.90;;;;;;5026695;28;20061;-75
2021/05/24 03:40:27;;;;;;;3.78;2.10;;;9.90;99.90;;;;;;5009198;28;20438;-75
2021/05/24 03:42:52;;;;;;;2.85;1.63;;;9.80;99.90;;;;;;5027109;28;20041;-75
2021/05/24 03:45:23;;;;;;;2.70;1.60;;;9.80;99.90;;;;;;5026723;28;20133;-74
2021/05/24 03:47:51;;;;;;;2.05;1.40;;;9.90;99.90;;;;;;5027041;28;20662;-74
2021/05/24 03:50:17;;;;;;;2.10;1.30;;;9.80;99.90;;;;;;5027148;28;20101;-74
2021/05/24 03:52:43;;;;;;;1.85;1.60;;;9.80;99.90;;;;;;5039029;28;20028;-74
2021/05/24 03:55:10;;;;;;;5.28;1.90;;;9.80;99.90;;;;;;5028624;28;20033;-75
2021/05/24 03:57:36;;;;;;;3.58;1.40;;;9.80;99.90;;;;;;5046134;28;20038;-74
2021/05/24 04:00:08;;;;;;;3.35;1.92;;;9.80;99.90;;;;;;5046474;28;20176;-74
2021/05/24 04:02:34;;;;;;;3.38;2.22;;;9.70;99.90;;;;;;5046464;28;20046;-74
2021/05/24 04:05:04;;;;;;;3.92;1.75;;;9.70;99.90;;;;;;5028951;28;20527;-74
2021/05/24 04:07:29;;;;;;;2.95;1.80;;;9.80;99.90;;;;;;5046245;28;20454;-75
2021/05/24 04:09:55;;;;;;;2.47;1.17;;;9.80;99.90;;;;;;5028706;28;20032;-75
2021/05/24 04:12:21;;;;;;;4.25;1.40;;;9.70;99.90;;;;;;5046198;28;20386;-75
2021/05/24 04:14:46;;;;;;;2.15;1.35;;;9.70;99.90;;;;;;5027891;28;20033;-74
2021/05/24 04:17:15;;;;;;;2.72;1.48;;;9.80;99.90;;;;;;5046350;28;20022;-75
2021/05/24 04:19:43;;;;;;;1.73;1.20;;;9.80;99.90;;;;;;5045839;28;20092;-74
2021/05/24 04:22:10;;;;;;;8.30;1.55;;;9.70;99.90;;;;;;5046127;28;20029;-75
2021/05/24 04:24:36;;;;;;;1.52;1.13;;;9.80;99.90;;;;;;5046154;28;20029;-76
2021/05/24 04:27:02;;;;;;;9.07;1.70;;;9.80;99.90;;;;;;5046315;28;20040;-75
2021/05/24 04:29:27;;;;;;;3.15;1.60;;;9.80;99.90;;;;;;5027528;28;20048;-74
2021/05/24 04:31:53;;;;;;;3.22;1.77;;;9.90;99.90;;;;;;5045986;28;20035;-74
2021/05/24 04:34:18;;;;;;;3.45;1.45;;;9.90;99.90;;;;;;5045667;28;20034;-75
2021/05/24 04:36:44;;;;;;;3.85;1.40;;;9.90;99.90;;;;;;5045861;28;20097;-75
2021/05/24 04:39:10;;;;;;;9.82;1.73;;;9.90;99.90;;;;;;5046424;28;20036;-74
2021/05/24 04:41:37;;;;;;;3.72;1.52;;;9.90;99.90;;;;;;5045758;28;20033;-75
2021/05/24 04:44:19;;;;;;;1.60;0.98;;;9.90;99.90;;;;;;5045977;28;20491;-74
2021/05/24 04:46:48;;;;;;;3.13;1.60;;;9.90;99.90;;;;;;5045766;28;20021;-75
2021/05/24 04:49:15;;;;;;;2.08;1.50;;;10.00;99.90;;;;;;5045349;28;20041;-75
2021/05/24 04:51:40;;;;;;;3.90;1.73;;;10.00;99.90;;;;;;5045564;28;20025;-75
2021/05/24 04:54:07;;;;;;;6.28;1.70;;;10.00;99.90;;;;;;5045734;28;20072;-76
2021/05/24 04:56:35;;;;;;;2.33;1.45;;;10.10;99.90;;;;;;5045232;28;20021;-73
2021/05/24 04:59:03;;;;;;;2.50;1.45;;;10.10;99.90;;;;;;5027544;28;20037;-75
2021/05/24 05:01:28;;;;;;;1.60;1.00;;;10.10;99.90;;;;;;5045064;28;20050;-75
2021/05/24 05:03:54;;;;;;;1.60;1.17;;;10.20;99.90;;;;;;5045065;28;20033;-76
2021/05/24 05:06:20;;;;;;;3.28;1.35;;;10.20;99.90;;;;;;5045400;28;20022;-72
2021/05/24 05:08:45;;;;;;;2.25;1.10;;;10.20;99.90;;;;;;5044981;28;20025;-74
2021/05/24 05:11:14;;;;;;;1.38;1.02;;;10.30;99.90;;;;;;5045358;28;20053;-74
2021/05/24 05:13:43;;;;;;;1.38;0.80;;;10.30;99.90;;;;;;5045139;28;20045;-75
2021/05/24 05:16:10;;;;;;;6.45;1.02;;;10.40;99.90;;;;;;5044375;28;20029;-76
2021/05/24 05:18:35;;;;;;;2.53;1.20;;;10.40;99.90;;;;;;5045278;28;20030;-75
2021/05/24 05:21:01;;;;;;;1.27;0.93;;;10.50;99.90;;;;;;5027489;28;20452;-72
2021/05/24 05:23:27;;;;;;;1.63;1.02;;;10.50;99.90;;;;;;5027032;28;20052;-75
2021/05/24 05:25:53;;;;;;;3.97;0.80;;;10.60;99.90;;;;;;5045034;28;20112;-74
2021/05/24 05:28:21;;;;;;;2.97;1.33;;;10.70;99.90;;;;;;5045056;28;20093;-76
2021/05/24 05:30:47;;;;;;;4.78;1.08;;;10.70;99.90;;;;;;5044452;28;20027;-73
2021/05/24 05:33:12;;;;;;;2.33;0.90;;;10.70;99.90;;;;;;5044510;28;20045;-74
2021/05/24 05:35:38;;;;;;;4.88;1.02;;;10.80;99.90;;;;;;5044892;28;20044;-74
2021/05/24 05:38:04;;;;;;;3.53;1.65;;;10.80;99.90;;;;;;5044896;28;20045;-74
2021/05/24 05:40:31;;;;;;;4.05;0.77;;;10.90;99.90;;;;;;5044453;28;20592;-74
2021/05/24 05:42:57;;;;;;;2.58;0.95;;;10.80;99.90;;;;;;5044454;28;20049;-73
2021/05/24 05:45:23;;;;;;;2.35;0.80;;;10.90;99.90;;;;;;5044385;28;20492;-73
2021/05/24 05:47:48;;;;;;;0.75;0.73;;;10.90;99.90;;;;;;5044390;28;20049;-74
2021/05/24 05:50:14;;;;;;;3.53;1.05;;;11.00;99.90;;;;;;5044111;28;20033;-73
2021/05/24 05:52:40;;;;;;;2.45;1.10;;;11.00;99.90;;;;;;5026906;28;20025;-75
2021/05/24 05:55:07;;;;;;;4.25;0.70;;;11.10;99.90;;;;;;5044754;28;20026;-74
2021/05/24 05:57:33;;;;;;;0.88;0.47;;;11.20;99.90;;;;;;5026561;28;20049;-74
2021/05/24 05:59:59;;;;;;;2.22;1.08;;;11.30;99.90;;;;;;5027041;28;20045;-73
2021/05/24 06:02:24;;;;;;;5.30;0.90;;;11.40;99.90;;;;;;5043791;28;20064;-73
2021/05/24 06:04:50;;;;;;;0.70;0.70;;;11.40;99.90;;;;;;5035744;28;20030;-77
2021/05/24 06:07:16;;;;;;;1.00;0.70;;;11.50;99.90;;;;;;5023464;28;20030;-75
2021/05/24 06:09:42;;;;;;;2.65;0.82;;;11.50;99.90;;;;;;5006744;28;20022;-75
2021/05/24 06:12:08;;;;;;;1.30;0.65;;;11.60;99.90;;;;;;5036436;28;20029;-74
2021/05/24 06:14:35;;;;;;;1.02;0.75;;;11.70;99.90;;;;;;5026679;28;20033;-76
2021/05/24 06:17:00;;;;;;;1.95;0.80;;;11.80;99.90;;;;;;5026800;28;20029;-74
2021/05/24 06:19:26;;;;;;;0.90;0.60;;;11.80;99.90;;;;;;5043675;28;20071;-74
2021/05/24 06:21:51;;;;;;;1.33;0.68;;;11.90;99.90;;;;;;5044459;28;20037;-75
2021/05/24 06:24:17;;;;;;;0.77;0.60;;;11.90;99.90;;;;;;5044036;28;20040;-76
2021/05/24 06:26:43;;;;;;;3.10;0.88;;;12.00;99.90;;;;;;5044182;28;20032;-74
2021/05/24 06:29:09;;;;;;;0.70;0.60;;;12.00;99.90;;;;;;5026949;28;20440;-75
2021/05/24 06:31:34;;;;;;;1.27;0.70;;;12.10;99.90;;;;;;5026173;28;20386;-75
2021/05/24 06:34:00;;;;;;;1.30;0.77;;;12.30;99.90;;;;;;5044245;28;20029;-75
2021/05/24 06:36:25;;;;;;;1.27;0.60;;;12.30;99.90;;;;;;5044280;28;20056;-72
2021/05/24 06:38:51;;;;;;;1.15;0.60;;;12.40;99.90;;;;;;5042860;28;20033;-78
2021/05/24 06:41:17;;;;;;;0.82;0.50;;;12.50;99.90;;;;;;5035630;28;20050;-76
2021/05/24 06:43:43;;;;;;;8.65;0.85;;;12.50;99.90;;;;;;5034192;28;20045;-76
2021/05/24 06:46:08;;;;;;;0.88;0.68;;;12.60;99.90;;;;;;5030007;28;20030;-75
2021/05/24 06:48:34;;;;;;;0.68;0.50;;;12.70;99.90;;;;;;5022925;28;20018;-75
2021/05/24 06:51:00;;;;;;;0.90;0.60;;;12.80;99.90;;;;;;5026412;28;20026;-79
2021/05/24 06:53:26;;;;;;;1.42;0.52;;;12.90;99.90;;;;;;5009120;28;20056;-74
2021/05/24 06:55:51;;;;;;;1.83;0.60;;;13.00;99.90;;;;;;5010388;28;20030;-76
2021/05/24 06:58:17;;;;;;;11.73;0.80;;;13.10;99.90;;;;;;5028053;28;20084;-73
2021/05/24 07:00:42;;;;;;;0.88;0.75;;;13.10;99.90;;;;;;5027387;28;20050;-75
2021/05/24 07:03:08;;;;;;;1.10;0.60;;;13.20;99.90;;;;;;5027460;28;20049;-77
2021/05/24 07:05:35;;;;;;;1.42;0.63;;;13.30;99.90;;;;;;5027964;28;20033;-77
2021/05/24 07:08:01;;;;;;;5.72;0.45;;;13.30;99.90;;;;;;5027795;28;20056;-74
2021/05/24 07:10:26;;;;;;;3.28;0.43;;;13.40;99.90;;;;;;5027846;28;20529;-76
2021/05/24 07:12:52;;;;;;;0.73;0.30;;;13.50;99.90;;;;;;5027800;28;20473;-73
2021/05/24 07:15:18;;;;;;;1.25;0.75;;;13.60;99.90;;;;;;5027228;28;20022;-77
2021/05/24 07:17:44;;;;;;;0.70;0.38;;;13.70;99.90;;;;;;5012751;28;20080;-74
2021/05/24 07:20:10;;;;;;;0.50;0.45;;;13.90;99.90;;;;;;5029709;28;20072;-76
2021/05/24 07:22:36;;;;;;;1.67;0.50;;;13.90;99.90;;;;;;5034949;28;20050;-73
2021/05/24 07:25:04;;;;;;;3.13;0.52;;;14.10;99.90;;;;;;5027468;28;20026;-77
2021/05/24 07:27:31;;;;;;;0.68;0.50;;;14.10;99.90;;;;;;5027564;28;20049;-74
2021/05/24 07:29:56;;;;;;;0.45;0.30;;;14.20;99.90;;;;;;5027043;28;20033;-77
2021/05/24 07:32:22;;;;;;;0.65;0.32;;;14.40;99.90;;;;;;5009421;28;20030;-72
2021/05/24 07:34:48;;;;;;;0.95;0.68;;;14.60;99.90;;;;;;5027038;28;20030;-74
2021/05/24 07:37:13;;;;;;;1.52;0.88;;;14.70;99.90;;;;;;5009647;28;20030;-74
2021/05/24 07:39:39;;;;;;;1.08;0.57;;;14.90;99.90;;;;;;5009567;28;20038;-76
2021/05/24 07:42:06;;;;;;;0.63;0.38;;;15.00;99.90;;;;;;5026865;28;20029;-74
2021/05/24 07:44:35;;;;;;;2.17;0.38;;;15.10;99.90;;;;;;5027177;28;20030;-76
2021/05/24 07:47:02;;;;;;;0.85;0.38;;;15.10;99.90;;;;;;5027127;28;20036;-72
2021/05/24 07:49:28;;;;;;;2.78;0.47;;;15.20;99.90;;;;;;5009011;28;20487;-76
2021/05/24 07:51:54;;;;;;;0.43;0.30;;;15.40;99.90;;;;;;5025568;28;20462;-73
2021/05/24 07:54:20;;;;;;;0.85;0.47;;;15.60;99.90;;;;;;5026657;28;20026;-75
2021/05/24 07:56:46;;;;;;;1.02;0.38;;;15.80;99.90;;;;;;5008968;28;20091;-73
2021/05/24 07:59:15;;;;;;;1.25;0.38;;;15.90;99.90;;;;;;5026660;28;20034;-73
2021/05/24 08:01:41;;;;;;;0.47;0.30;;;16.00;99.90;;;;;;5026024;28;20041;-77
2021/05/24 08:04:07;;;;;;;1.95;0.40;;;16.00;99.90;;;;;;5045269;28;20508;-75
2021/05/24 08:06:33;;;;;;;1.40;0.50;;;16.10;99.90;;;;;;5046539;28;20135;-72
2021/05/24 08:08:58;;;;;;;5.47;0.60;;;16.10;99.90;;;;;;5027825;28;20133;-76
2021/05/24 08:11:24;;;;;;;1.23;0.32;;;16.00;99.90;;;;;;5045545;28;20029;-75
2021/05/24 08:13:50;;;;;;;0.50;0.47;;;16.00;99.90;;;;;;5027984;28;20093;-74
2021/05/24 08:16:16;;;;;;;1.45;0.50;;;16.00;99.90;;;;;;5046175;28;20032;-77
2021/05/24 08:18:43;;;;;;;0.20;0.20;;;16.00;99.90;;;;;;5028122;28;20026;-75
2021/05/24 08:21:10;;;;;;;0.40;0.32;;;16.00;99.90;;;;;;5028179;28;20048;-77
2021/05/24 08:23:36;;;;;;;0.73;0.50;;;16.10;99.90;;;;;;5045960;28;20025;-80
2021/05/24 08:26:03;;;;;;;1.98;0.30;;;16.20;99.90;;;;;;5046190;28;20021;-74
2021/05/24 08:28:29;;;;;;;6.20;0.80;;;16.40;99.90;;;;;;5039331;28;20026;-76
2021/05/24 08:30:55;;;;;;;0.30;0.30;;;16.60;99.90;;;;;;5008099;28;20080;-76
2021/05/24 08:33:22;;;;;;;0.98;0.47;;;16.70;99.90;;;;;;5008189;28;20057;-78
2021/05/24 08:35:48;;;;;;;0.75;0.30;;;16.80;99.90;;;;;;5025997;28;20030;-75
2021/05/24 08:38:14;;;;;;;0.30;0.15;;;17.00;99.90;;;;;;5008072;28;20022;-79
2021/05/24 08:40:44;;;;;;;0.22;0.22;;;17.00;99.90;;;;;;5008014;28;20065;-75
2021/05/24 08:43:11;;;;;;;0.20;0.20;;;17.10;99.90;;;;;;5026063;28;20041;-74
2021/05/24 08:45:39;;;;;;;1.33;0.50;;;17.20;99.90;;;;;;5025003;28;20065;-73
2021/05/24 08:48:06;;;;;;;0.57;0.57;;;17.30;99.90;;;;;;5025903;28;20036;-78
2021/05/24 08:50:34;;;;;;;0.55;0.30;;;17.30;99.90;;;;;;5008280;28;20033;-74
2021/05/24 08:53:00;;;;;;;0.88;0.40;;;17.20;99.90;;;;;;5027915;28;20034;-74
2021/05/24 08:55:26;;;;;;;0.70;0.30;;;17.40;99.90;;;;;;5018569;28;20040;-78
2021/05/24 08:57:52;;;;;;;1.35;0.52;;;17.50;99.90;;;;;;5037262;28;20053;-72
2021/05/24 09:00:20;;;;;;;0.50;0.30;;;17.60;99.90;;;;;;5033945;28;20077;-74
2021/05/24 09:02:48;;;;;;;0.30;0.20;;;17.80;99.90;;;;;;5030852;28;20084;-77
2021/05/24 09:05:14;;;;;;;2.15;0.60;;;17.80;99.90;;;;;;5043017;28;20028;-71
2021/05/24 09:08:00;;;;;;;2.70;0.40;;;17.90;99.90;;;;;;5045294;28;20029;-75
2021/05/24 09:10:28;;;;;;;0.38;0.30;;;17.80;99.90;;;;;;5024243;28;20478;-77
2021/05/24 09:12:55;;;;;;;5.40;0.20;;;17.80;99.90;;;;;;5024157;28;20025;-76
2021/05/24 09:15:24;;;;;;;1.85;0.32;;;17.90;99.90;;;;;;5006703;28;20038;-75
2021/05/24 09:17:55;;;;;;;1.33;0.22;;;18.10;99.90;;;;;;5017876;28;20079;-75
2021/05/24 09:20:23;;;;;;;0.45;0.25;;;18.30;99.90;;;;;;5038555;28;20045;-73
2021/05/24 09:23:10;;;;;;;3.08;0.45;;;18.40;99.90;;;;;;5009409;28;20497;-74
2021/05/24 09:25:58;;;;;;;1.10;0.47;;;18.60;99.90;;;;;;5030013;28;20032;-73
2021/05/24 09:28:34;;;;;;;0.65;0.65;;;18.70;99.90;;;;;;5043813;28;20044;-78
2021/05/24 09:31:13;;;;;;;1.02;0.32;;;18.80;99.90;;;;;;5044588;28;20033;-74
2021/05/24 09:33:48;;;;;;;3.47;0.60;;;18.90;99.90;;;;;;5044290;28;20026;-77
2021/05/24 09:36:14;;;;;;;1.40;0.57;;;18.90;99.90;;;;;;5044851;28;20031;-73
2021/05/24 09:38:49;;;;;;;0.93;0.35;;;19.00;99.90;;;;;;5025982;28;20033;-73
2021/05/24 09:41:17;;;;;;;0.35;0.20;;;19.00;99.90;;;;;;5023692;28;20038;-73
2021/05/24 09:43:54;;;;;;;3.03;0.22;;;19.10;99.90;;;;;;5025072;28;20033;-75
2021/05/24 09:46:25;;;;;;;0.57;0.30;;;19.20;99.90;;;;;;5006436;28;20061;-78
2021/05/24 09:48:54;;;;;;;0.20;0.10;;;19.20;99.90;;;;;;5006367;28;20079;-74
2021/05/24 09:51:24;;;;;;;2.20;0.40;;;19.30;99.90;;;;;;5035554;28;20089;-75
2021/05/24 09:54:02;;;;;;;1.20;0.57;;;19.40;99.90;;;;;;5044227;28;20113;-74
2021/05/24 09:56:30;;;;;;;0.63;0.25;;;19.50;99.90;;;;;;5026160;28;20021;-77
2021/05/24 09:59:00;;;;;;;1.58;0.30;;;19.60;99.90;;;;;;5022372;28;20018;-73
2021/05/24 10:01:35;;;;;;;1.70;0.55;;;19.70;99.90;;;;;;5029406;28;20073;-76
2021/05/24 10:04:01;;;;;;;0.20;0.20;;;19.40;99.90;;;;;;5038828;28;20033;-74
2021/05/24 10:06:27;;;;;;;0.93;0.43;;;19.50;99.90;;;;;;5044300;28;20034;-73
2021/05/24 10:08:56;;;;;;;1.27;0.65;;;19.50;99.90;;;;;;5042190;28;20696;-76
2021/05/24 10:11:23;;;;;;;0.47;0.25;;;19.60;99.90;;;;;;5043910;28;20029;-73
2021/05/24 10:13:59;;;;;;;1.00;0.32;;;19.80;99.90;;;;;;5044058;28;20029;-75
2021/05/24 10:16:31;;;;;;;0.30;0.17;;;19.80;99.90;;;;;;5044922;28;20551;-76
2021/05/24 10:19:06;;;;;;;0.93;0.38;;;19.70;99.90;;;;;;5042829;28;20561;-74
2021/05/24 10:21:34;;;;;;;1.30;0.55;;;19.70;99.90;;;;;;5043680;28;20037;-79
2021/05/24 10:23:59;;;;;;;0.20;0.20;;;19.80;99.90;;;;;;5026453;28;20025;-73
2021/05/24 10:26:26;;;;;;;0.50;0.28;;;19.90;99.90;;;;;;5046333;28;20119;-76
2021/05/24 10:28:53;;;;;;;5.15;0.70;;;20.20;99.90;;;;;;5030518;28;20097;-74
2021/05/24 10:31:31;;;;;;;0.20;0.20;;;20.30;99.90;;;;;;5048567;28;20060;-73
2021/05/24 10:34:09;;;;;;;1.92;0.43;;;20.20;99.90;;;;;;5048498;28;20569;-73
2021/05/24 10:36:34;;;;;;;3.03;0.43;;;20.00;99.90;;;;;;5047937;28;20056;-73
2021/05/24 10:39:19;;;;;;;0.30;0.20;;;20.00;99.90;;;;;;5048414;28;20026;-75
2021/05/24 10:41:46;;;;;;;0.52;0.30;;;20.20;99.90;;;;;;5030264;28;20041;-78
2021/05/24 10:44:19;;;;;;;0.43;0.20;;;20.30;99.90;;;;;;5030140;28;20107;-74
2021/05/24 10:46:45;;;;;;;0.40;0.15;;;20.40;99.90;;;;;;5040441;28;20025;-71
2021/05/24 10:49:16;;;;;;;0.82;0.32;;;20.60;99.90;;;;;;5039308;28;20034;-75
2021/05/24 10:51:47;;;;;;;0.40;0.20;;;20.80;99.90;;;;;;5030318;28;20024;-77
2021/05/24 10:54:22;;;;;;;0.20;0.20;;;20.90;99.90;;;;;;5047391;28;20029;-71
2021/05/24 10:57:00;;;;;;;0.10;0.10;;;21.10;99.90;;;;;;5028072;28;20029;-75
2021/05/24 11:02:16;;;;;;;0.17;0.10;;;21.40;99.90;;;;;;5027464;28;20058;-75
2021/05/24 11:04:56;;;;;;;0.38;0.22;;;21.60;99.90;;;;;;5036797;28;20036;-72
2021/05/24 11:07:27;;;;;;;0.75;0.30;;;21.70;99.90;;;;;;5030441;28;20032;-74
2021/05/24 11:09:53;;;;;;;0.30;0.30;;;21.80;99.90;;;;;;5047469;28;20037;-78
2021/05/24 11:12:32;;;;;;;5.07;0.47;;;21.90;99.90;;;;;;5029775;28;20036;-74
2021/05/24 11:15:06;;;;;;;0.32;0.20;;;22.10;99.90;;;;;;5047800;28;20040;-73
2021/05/24 11:18:05;;;;;;;0.15;0.15;;;22.20;99.80;;;;;;5026500;28;20034;-70
2021/05/24 11:20:51;;;;;;;0.20;0.20;;;21.80;97.70;;;;;;5027874;28;20098;-73
2021/05/24 11:26:20;;;;;;;0.30;0.20;;;20.80;99.90;;;;;;5026709;28;20430;-75
2021/05/24 11:28:50;;;;;;;0.20;0.20;;;20.70;99.90;;;;;;5027412;28;20105;-78
2021/05/24 11:31:17;;;;;;;0.50;0.35;;;20.60;99.90;;;;;;5025425;28;20061;-75
2021/05/24 11:33:53;;;;;;;1.25;0.28;;;20.50;99.90;;;;;;5008071;28;20060;-75
2021/05/24 11:36:28;;;;;;;0.30;0.20;;;20.60;99.90;;;;;;5026657;28;20051;-71
2021/05/24 11:39:16;;;;;;;0.30;0.20;;;20.60;99.90;;;;;;5007594;28;20059;-72
2021/05/24 11:41:56;;;;;;;4.03;0.20;;;20.80;99.70;;;;;;5009787;28;20052;-75
2021/05/24 11:44:29;;;;;;;2.95;0.25;;;21.30;98.90;;;;;;5008816;28;20034;-74
2021/05/24 11:46:57;;;;;;;0.08;0.08;;;21.30;98.70;;;;;;5027123;28;20085;-76
2021/05/24 11:49:35;;;;;;;0.30;0.20;;;21.10;99.90;;;;;;5009326;28;20030;-75
2021/05/24 11:52:03;;;;;;;0.10;0.10;;;21.20;99.90;;;;;;5026737;28;20073;-73
2021/05/24 11:54:29;;;;;;;0.10;0.10;;;21.60;99.90;;;;;;5025913;28;20040;-75
2021/05/24 11:56:58;;;;;;;0.25;0.20;;;21.80;99.20;;;;;;5026757;28;20073;-71
2021/05/24 11:59:29;;;;;;;0.10;0.00;;;22.10;98.10;;;;;;5008360;28;20033;-74
2021/05/24 12:01:56;;;;;;;0.38;0.20;;;22.20;95.40;;;;;;5026375;28;20057;-71
2021/05/24 12:04:25;;;;;;;0.40;0.30;;;22.00;98.40;;;;;;5008547;28;20029;-72
2021/05/24 12:07:03;;;;;;;3.58;0.50;;;21.80;96.80;;;;;;5008987;28;20033;-75
2021/05/24 12:09:39;;;;;;;0.52;0.28;;;21.90;97.10;;;;;;5038655;28;20443;-78
2021/05/24 12:12:15;;;;;;;0.20;0.20;;;21.70;96.60;;;;;;5046389;28;20021;-77
2021/05/24 12:14:45;;;;;;;0.93;0.38;;;21.60;97.90;;;;;;5028847;28;20040;-73
2021/05/24 12:17:16;;;;;;;0.65;0.20;;;21.70;95.50;;;;;;5046381;28;20034;-74
2021/05/24 12:19:43;;;;;;;3.20;0.63;;;21.90;95.80;;;;;;5046093;28;20119;-73
2021/05/24 12:22:12;;;;;;;1.08;0.35;;;22.30;99.30;;;;;;5028581;28;20044;-76
2021/05/24 12:24:44;;;;;;;0.30;0.10;;;22.40;98.10;;;;;;5028357;28;20120;-76
2021/05/24 12:27:12;;;;;;;0.75;0.32;;;22.20;96.50;;;;;;5046328;28;20025;-74
2021/05/24 12:30:17;;;;;;;0.28;0.13;;;21.80;97.00;;;;;;5046277;28;20052;-78
2021/05/24 12:32:48;;;;;;;1.08;0.25;;;21.40;95.70;;;;;;5027847;28;20052;-73
2021/05/24 12:35:36;;;;;;;0.17;0.17;;;21.10;94.10;;;;;;5028343;28;20483;-75
2021/05/24 12:38:10;;;;;;;0.30;0.20;;;20.80;95.10;;;;;;5029895;28;20403;-77
2021/05/24 12:40:36;;;;;;;;;;;20.60;96.80;;;;;;5045583;28;20087;-75
2021/05/24 12:43:03;;;;;;;0.40;0.28;;;20.40;94.70;;;;;;5046253;28;19952;-72
2021/05/24 12:45:30;;;;;;;2.15;0.17;;;20.30;97.80;;;;;;5045180;28;20036;-74
2021/05/24 12:48:19;;;;;;;0.20;0.20;;;20.10;96.10;;;;;;5027845;28;20052;-80
2021/05/24 12:50:47;;;;;;;1.05;0.20;;;20.00;96.30;;;;;;5045418;28;20079;-79
2021/05/24 12:53:15;;;;;;;0.20;0.20;;;20.00;97.80;;;;;;5045648;28;20021;-76
2021/05/24 12:55:41;;;;;;;0.20;0.15;;;19.80;98.10;;;;;;5045750;28;20022;-78
2021/05/24 12:58:18;;;;;;;0.57;0.28;;;19.80;97.20;;;;;;5027676;28;20092;-75
2021/05/24 13:00:49;;;;;;;0.03;0.03;;;19.70;95.60;;;;;;5045343;28;20037;-76